sensor_id;sensor_type;location;lat;lon;timestamp;P1;durP1;ratioP1;P2;durP2;ratioP2
11596;SDS011;5854;48.072;16.286;2024-03-22T00:00:58;4.22;;;3.83;;
11596;SDS011;5854;48.072;16.286;2024-03-22T00:03:25;4.38;;;4.05;;
11596;SDS011;5854;48.072;16.286;2024-03-22T00:05:51;7.32;;;4.68;;
11596;SDS011;5854;48.072;16.286;2024-03-22T00:08:19;5.85;;;4.40;;
11596;SDS011;5854;48.072;16.286;2024-03-22T00:10:46;5.32;;;4.85;;
11596;SDS011;5854;48.072;16.286;2024-03-22T00:13:14;4.90;;;4.40;;
11596;SDS011;5854;48.072;16.286;2024-03-22T00:15:40;5.38;;;4.88;;
11596;SDS011;5854;48.072;16.286;2024-03-22T00:18:09;5.22;;;4.72;;
11596;SDS011;5854;48.072;16.286;2024-03-22T00:20:35;5.90;;;5.22;;
11596;SDS011;5854;48.072;16.286;2024-03-22T00:23:03;4.70;;;3.95;;
11596;SDS011;5854;48.072;16.286;2024-03-22T00:25:29;5.78;;;5.18;;
11596;SDS011;5854;48.072;16.286;2024-03-22T00:27:58;5.82;;;5.32;;
11596;SDS011;5854;48.072;16.286;2024-03-22T00:30:24;7.22;;;5.20;;
11596;SDS011;5854;48.072;16.286;2024-03-22T00:32:52;6.45;;;5.82;;
11596;SDS011;5854;48.072;16.286;2024-03-22T00:35:18;7.63;;;6.15;;
11596;SDS011;5854;48.072;16.286;2024-03-22T00:37:45;7.88;;;6.18;;
11596;SDS011;5854;48.072;16.286;2024-03-22T00:40:12;9.27;;;5.82;;
11596;SDS011;5854;48.072;16.286;2024-03-22T00:42:39;6.95;;;6.22;;
11596;SDS011;5854;48.072;16.286;2024-03-22T00:45:07;5.07;;;4.40;;
11596;SDS011;5854;48.072;16.286;2024-03-22T00:47:35;6.90;;;5.35;;
11596;SDS011;5854;48.072;16.286;2024-03-22T00:50:01;7.18;;;6.00;;
11596;SDS011;5854;48.072;16.286;2024-03-22T00:52:28;3.03;;;2.72;;
11596;SDS011;5854;48.072;16.286;2024-03-22T00:54:54;7.03;;;6.25;;
11596;SDS011;5854;48.072;16.286;2024-03-22T00:57:21;8.88;;;5.90;;
11596;SDS011;5854;48.072;16.286;2024-03-22T00:59:48;7.50;;;6.22;;
11596;SDS011;5854;48.072;16.286;2024-03-22T01:02:16;8.10;;;6.07;;
11596;SDS011;5854;48.072;16.286;2024-03-22T01:04:43;7.38;;;6.47;;
11596;SDS011;5854;48.072;16.286;2024-03-22T01:07:10;8.05;;;6.47;;
11596;SDS011;5854;48.072;16.286;2024-03-22T01:09:36;6.38;;;4.75;;
11596;SDS011;5854;48.072;16.286;2024-03-22T01:12:03;6.28;;;4.75;;
11596;SDS011;5854;48.072;16.286;2024-03-22T01:14:30;9.35;;;6.40;;
11596;SDS011;5854;48.072;16.286;2024-03-22T01:16:57;7.72;;;5.97;;
11596;SDS011;5854;48.072;16.286;2024-03-22T01:19:25;5.22;;;4.78;;
11596;SDS011;5854;48.072;16.286;2024-03-22T01:21:52;6.10;;;5.60;;
11596;SDS011;5854;48.072;16.286;2024-03-22T01:24:18;2.65;;;2.47;;
11596;SDS011;5854;48.072;16.286;2024-03-22T01:26:46;10.05;;;7.07;;
11596;SDS011;5854;48.072;16.286;2024-03-22T01:29:13;8.75;;;6.95;;
11596;SDS011;5854;48.072;16.286;2024-03-22T01:31:40;2.30;;;2.10;;
11596;SDS011;5854;48.072;16.286;2024-03-22T01:34:07;4.22;;;3.83;;
11596;SDS011;5854;48.072;16.286;2024-03-22T01:36:37;11.75;;;7.18;;
11596;SDS011;5854;48.072;16.286;2024-03-22T01:39:03;8.20;;;6.97;;
11596;SDS011;5854;48.072;16.286;2024-03-22T01:41:30;10.10;;;6.97;;
11596;SDS011;5854;48.072;16.286;2024-03-22T01:43:57;9.32;;;7.07;;
11596;SDS011;5854;48.072;16.286;2024-03-22T01:46:24;8.77;;;6.60;;
11596;SDS011;5854;48.072;16.286;2024-03-22T01:48:50;10.05;;;7.55;;
11596;SDS011;5854;48.072;16.286;2024-03-22T01:51:19;8.63;;;6.45;;
11596;SDS011;5854;48.072;16.286;2024-03-22T01:53:46;6.03;;;4.85;;
11596;SDS011;5854;48.072;16.286;2024-03-22T01:56:14;9.38;;;7.32;;
11596;SDS011;5854;48.072;16.286;2024-03-22T01:58:40;3.53;;;3.17;;
11596;SDS011;5854;48.072;16.286;2024-03-22T02:01:09;4.97;;;4.25;;
11596;SDS011;5854;48.072;16.286;2024-03-22T02:03:35;8.20;;;5.80;;
11596;SDS011;5854;48.072;16.286;2024-03-22T02:06:02;6.50;;;4.65;;
11596;SDS011;5854;48.072;16.286;2024-03-22T02:08:29;6.95;;;6.10;;
11596;SDS011;5854;48.072;16.286;2024-03-22T02:10:58;12.57;;;7.00;;
11596;SDS011;5854;48.072;16.286;2024-03-22T02:13:24;14.18;;;7.97;;
11596;SDS011;5854;48.072;16.286;2024-03-22T02:15:51;13.02;;;8.15;;
11596;SDS011;5854;48.072;16.286;2024-03-22T02:18:18;16.20;;;8.55;;
11596;SDS011;5854;48.072;16.286;2024-03-22T02:20:45;9.07;;;7.60;;
11596;SDS011;5854;48.072;16.286;2024-03-22T02:23:11;10.02;;;7.90;;
11596;SDS011;5854;48.072;16.286;2024-03-22T02:25:40;2.97;;;1.05;;
11596;SDS011;5854;48.072;16.286;2024-03-22T02:28:06;11.38;;;8.45;;
11596;SDS011;5854;48.072;16.286;2024-03-22T02:30:33;12.77;;;8.07;;
11596;SDS011;5854;48.072;16.286;2024-03-22T02:33:00;11.35;;;7.93;;
11596;SDS011;5854;48.072;16.286;2024-03-22T02:35:27;10.85;;;8.38;;
11596;SDS011;5854;48.072;16.286;2024-03-22T02:37:53;11.77;;;8.27;;
11596;SDS011;5854;48.072;16.286;2024-03-22T02:40:23;11.40;;;8.05;;
11596;SDS011;5854;48.072;16.286;2024-03-22T02:42:51;11.82;;;8.18;;
11596;SDS011;5854;48.072;16.286;2024-03-22T02:45:18;9.57;;;7.60;;
11596;SDS011;5854;48.072;16.286;2024-03-22T02:47:44;13.93;;;8.95;;
11596;SDS011;5854;48.072;16.286;2024-03-22T02:50:11;14.85;;;9.13;;
11596;SDS011;5854;48.072;16.286;2024-03-22T02:52:38;13.10;;;8.35;;
11596;SDS011;5854;48.072;16.286;2024-03-22T02:55:05;10.57;;;8.13;;
11596;SDS011;5854;48.072;16.286;2024-03-22T02:57:33;11.38;;;8.73;;
11596;SDS011;5854;48.072;16.286;2024-03-22T03:00:01;10.73;;;7.63;;
11596;SDS011;5854;48.072;16.286;2024-03-22T03:02:28;15.18;;;9.45;;
11596;SDS011;5854;48.072;16.286;2024-03-22T03:04:55;12.70;;;8.45;;
11596;SDS011;5854;48.072;16.286;2024-03-22T03:07:22;12.80;;;8.68;;
11596;SDS011;5854;48.072;16.286;2024-03-22T03:09:50;11.45;;;8.07;;
11596;SDS011;5854;48.072;16.286;2024-03-22T03:12:16;16.92;;;8.63;;
11596;SDS011;5854;48.072;16.286;2024-03-22T03:14:43;13.02;;;8.45;;
11596;SDS011;5854;48.072;16.286;2024-03-22T03:17:11;10.23;;;8.15;;
11596;SDS011;5854;48.072;16.286;2024-03-22T03:19:38;12.88;;;8.63;;
11596;SDS011;5854;48.072;16.286;2024-03-22T03:22:05;12.32;;;8.70;;
11596;SDS011;5854;48.072;16.286;2024-03-22T03:24:32;11.20;;;8.10;;
11596;SDS011;5854;48.072;16.286;2024-03-22T03:26:58;9.63;;;6.97;;
11596;SDS011;5854;48.072;16.286;2024-03-22T03:29:25;10.60;;;7.15;;
11596;SDS011;5854;48.072;16.286;2024-03-22T03:31:52;10.45;;;8.02;;
11596;SDS011;5854;48.072;16.286;2024-03-22T03:34:20;11.75;;;7.80;;
11596;SDS011;5854;48.072;16.286;2024-03-22T03:36:47;11.05;;;8.82;;
11596;SDS011;5854;48.072;16.286;2024-03-22T03:39:14;12.95;;;8.52;;
11596;SDS011;5854;48.072;16.286;2024-03-22T03:41:40;10.52;;;7.63;;
11596;SDS011;5854;48.072;16.286;2024-03-22T03:44:08;13.75;;;8.73;;
11596;SDS011;5854;48.072;16.286;2024-03-22T03:46:34;9.23;;;7.75;;
11596;SDS011;5854;48.072;16.286;2024-03-22T03:49:01;9.50;;;8.15;;
11596;SDS011;5854;48.072;16.286;2024-03-22T03:51:29;11.80;;;7.13;;
11596;SDS011;5854;48.072;16.286;2024-03-22T03:53:56;11.13;;;8.82;;
11596;SDS011;5854;48.072;16.286;2024-03-22T03:56:22;11.23;;;8.23;;
11596;SDS011;5854;48.072;16.286;2024-03-22T03:58:49;8.52;;;6.30;;
11596;SDS011;5854;48.072;16.286;2024-03-22T04:01:16;11.60;;;8.15;;
11596;SDS011;5854;48.072;16.286;2024-03-22T04:03:43;8.63;;;6.82;;
11596;SDS011;5854;48.072;16.286;2024-03-22T04:06:10;9.52;;;7.90;;
11596;SDS011;5854;48.072;16.286;2024-03-22T04:08:38;10.10;;;7.65;;
11596;SDS011;5854;48.072;16.286;2024-03-22T04:11:05;10.57;;;8.50;;
11596;SDS011;5854;48.072;16.286;2024-03-22T04:13:32;12.23;;;7.65;;
11596;SDS011;5854;48.072;16.286;2024-03-22T04:15:58;9.93;;;7.68;;
11596;SDS011;5854;48.072;16.286;2024-03-22T04:18:26;14.05;;;6.95;;
11596;SDS011;5854;48.072;16.286;2024-03-22T04:20:53;10.77;;;7.38;;
11596;SDS011;5854;48.072;16.286;2024-03-22T04:23:21;12.13;;;7.18;;
11596;SDS011;5854;48.072;16.286;2024-03-22T04:25:52;5.10;;;4.68;;
11596;SDS011;5854;48.072;16.286;2024-03-22T04:28:20;9.52;;;6.68;;
11596;SDS011;5854;48.072;16.286;2024-03-22T04:30:54;5.35;;;4.80;;
11596;SDS011;5854;48.072;16.286;2024-03-22T04:33:23;7.88;;;4.35;;
11596;SDS011;5854;48.072;16.286;2024-03-22T04:35:49;12.38;;;7.43;;
11596;SDS011;5854;48.072;16.286;2024-03-22T04:38:16;7.38;;;6.60;;
11596;SDS011;5854;48.072;16.286;2024-03-22T04:40:43;8.07;;;6.97;;
11596;SDS011;5854;48.072;16.286;2024-03-22T04:43:11;8.43;;;6.60;;
11596;SDS011;5854;48.072;16.286;2024-03-22T04:45:38;8.27;;;7.47;;
11596;SDS011;5854;48.072;16.286;2024-03-22T04:48:06;7.03;;;5.10;;
11596;SDS011;5854;48.072;16.286;2024-03-22T04:50:34;7.53;;;6.32;;
11596;SDS011;5854;48.072;16.286;2024-03-22T04:53:00;7.93;;;6.80;;
11596;SDS011;5854;48.072;16.286;2024-03-22T04:55:28;8.10;;;6.43;;
11596;SDS011;5854;48.072;16.286;2024-03-22T04:57:54;9.23;;;6.53;;
11596;SDS011;5854;48.072;16.286;2024-03-22T05:00:23;7.45;;;6.50;;
11596;SDS011;5854;48.072;16.286;2024-03-22T05:02:50;7.63;;;5.43;;
11596;SDS011;5854;48.072;16.286;2024-03-22T05:05:17;11.70;;;7.43;;
11596;SDS011;5854;48.072;16.286;2024-03-22T05:07:44;7.93;;;7.13;;
11596;SDS011;5854;48.072;16.286;2024-03-22T05:10:11;8.70;;;6.63;;
11596;SDS011;5854;48.072;16.286;2024-03-22T05:12:38;9.70;;;6.47;;
11596;SDS011;5854;48.072;16.286;2024-03-22T05:15:06;8.00;;;6.47;;
11596;SDS011;5854;48.072;16.286;2024-03-22T05:17:34;11.05;;;7.18;;
11596;SDS011;5854;48.072;16.286;2024-03-22T05:20:02;9.93;;;7.20;;
11596;SDS011;5854;48.072;16.286;2024-03-22T05:22:30;7.97;;;7.13;;
11596;SDS011;5854;48.072;16.286;2024-03-22T05:25:00;9.82;;;7.35;;
11596;SDS011;5854;48.072;16.286;2024-03-22T05:27:26;9.32;;;6.55;;
11596;SDS011;5854;48.072;16.286;2024-03-22T05:29:54;15.02;;;7.28;;
11596;SDS011;5854;48.072;16.286;2024-03-22T05:32:20;6.13;;;4.20;;
11596;SDS011;5854;48.072;16.286;2024-03-22T05:34:49;13.23;;;8.15;;
11596;SDS011;5854;48.072;16.286;2024-03-22T05:37:15;14.70;;;9.30;;
11596;SDS011;5854;48.072;16.286;2024-03-22T05:39:42;8.38;;;5.75;;
11596;SDS011;5854;48.072;16.286;2024-03-22T05:42:09;14.13;;;8.35;;
11596;SDS011;5854;48.072;16.286;2024-03-22T05:44:36;10.77;;;8.13;;
11596;SDS011;5854;48.072;16.286;2024-03-22T05:47:02;15.88;;;9.45;;
11596;SDS011;5854;48.072;16.286;2024-03-22T05:49:30;15.93;;;10.13;;
11596;SDS011;5854;48.072;16.286;2024-03-22T05:51:58;15.10;;;9.05;;
11596;SDS011;5854;48.072;16.286;2024-03-22T05:54:25;15.43;;;8.45;;
11596;SDS011;5854;48.072;16.286;2024-03-22T05:56:51;6.25;;;4.75;;
11596;SDS011;5854;48.072;16.286;2024-03-22T05:59:19;14.57;;;8.75;;
11596;SDS011;5854;48.072;16.286;2024-03-22T06:01:45;13.15;;;8.88;;
11596;SDS011;5854;48.072;16.286;2024-03-22T06:04:12;11.57;;;9.38;;
11596;SDS011;5854;48.072;16.286;2024-03-22T06:06:38;15.23;;;10.82;;
11596;SDS011;5854;48.072;16.286;2024-03-22T06:09:07;14.50;;;9.52;;
11596;SDS011;5854;48.072;16.286;2024-03-22T06:11:36;12.65;;;10.15;;
11596;SDS011;5854;48.072;16.286;2024-03-22T06:14:03;20.20;;;10.20;;
11596;SDS011;5854;48.072;16.286;2024-03-22T06:16:29;15.57;;;10.75;;
11596;SDS011;5854;48.072;16.286;2024-03-22T06:18:57;12.75;;;9.48;;
11596;SDS011;5854;48.072;16.286;2024-03-22T06:21:23;14.50;;;9.60;;
11596;SDS011;5854;48.072;16.286;2024-03-22T06:23:52;20.05;;;10.13;;
11596;SDS011;5854;48.072;16.286;2024-03-22T06:26:19;14.13;;;9.55;;
11596;SDS011;5854;48.072;16.286;2024-03-22T06:28:47;18.52;;;10.10;;
11596;SDS011;5854;48.072;16.286;2024-03-22T06:31:13;14.85;;;9.85;;
11596;SDS011;5854;48.072;16.286;2024-03-22T06:33:40;13.77;;;9.18;;
11596;SDS011;5854;48.072;16.286;2024-03-22T06:36:07;11.63;;;9.43;;
11596;SDS011;5854;48.072;16.286;2024-03-22T06:38:35;17.52;;;8.95;;
11596;SDS011;5854;48.072;16.286;2024-03-22T06:41:01;22.25;;;12.43;;
11596;SDS011;5854;48.072;16.286;2024-03-22T06:43:30;19.98;;;10.88;;
11596;SDS011;5854;48.072;16.286;2024-03-22T06:45:56;21.58;;;12.05;;
11596;SDS011;5854;48.072;16.286;2024-03-22T06:48:24;18.88;;;10.73;;
11596;SDS011;5854;48.072;16.286;2024-03-22T06:50:50;18.67;;;10.27;;
11596;SDS011;5854;48.072;16.286;2024-03-22T06:53:17;6.18;;;5.30;;
11596;SDS011;5854;48.072;16.286;2024-03-22T06:55:43;18.75;;;10.55;;
11596;SDS011;5854;48.072;16.286;2024-03-22T06:58:11;16.02;;;10.40;;
11596;SDS011;5854;48.072;16.286;2024-03-22T07:00:38;16.65;;;9.85;;
11596;SDS011;5854;48.072;16.286;2024-03-22T07:03:05;15.15;;;9.85;;
11596;SDS011;5854;48.072;16.286;2024-03-22T07:05:32;10.32;;;7.22;;
11596;SDS011;5854;48.072;16.286;2024-03-22T07:07:59;20.42;;;11.30;;
11596;SDS011;5854;48.072;16.286;2024-03-22T07:10:25;10.43;;;7.65;;
11596;SDS011;5854;48.072;16.286;2024-03-22T07:12:54;17.35;;;9.05;;
11596;SDS011;5854;48.072;16.286;2024-03-22T07:15:20;12.13;;;7.50;;
11596;SDS011;5854;48.072;16.286;2024-03-22T07:17:50;15.23;;;8.23;;
11596;SDS011;5854;48.072;16.286;2024-03-22T07:20:17;15.27;;;9.70;;
11596;SDS011;5854;48.072;16.286;2024-03-22T07:22:44;12.52;;;7.97;;
11596;SDS011;5854;48.072;16.286;2024-03-22T07:25:11;15.00;;;9.07;;
11596;SDS011;5854;48.072;16.286;2024-03-22T07:27:38;17.55;;;10.25;;
11596;SDS011;5854;48.072;16.286;2024-03-22T07:30:05;17.40;;;9.85;;
11596;SDS011;5854;48.072;16.286;2024-03-22T07:32:33;19.85;;;9.82;;
11596;SDS011;5854;48.072;16.286;2024-03-22T07:35:01;14.13;;;8.85;;
11596;SDS011;5854;48.072;16.286;2024-03-22T07:37:28;18.55;;;10.57;;
11596;SDS011;5854;48.072;16.286;2024-03-22T07:39:54;14.80;;;9.23;;
11596;SDS011;5854;48.072;16.286;2024-03-22T07:42:22;17.65;;;9.07;;
11596;SDS011;5854;48.072;16.286;2024-03-22T07:44:48;13.32;;;8.60;;
11596;SDS011;5854;48.072;16.286;2024-03-22T07:47:15;13.40;;;6.57;;
11596;SDS011;5854;48.072;16.286;2024-03-22T07:49:41;12.20;;;8.50;;
11596;SDS011;5854;48.072;16.286;2024-03-22T07:52:10;15.15;;;9.18;;
11596;SDS011;5854;48.072;16.286;2024-03-22T07:54:36;15.90;;;7.80;;
11596;SDS011;5854;48.072;16.286;2024-03-22T07:57:04;10.98;;;6.90;;
11596;SDS011;5854;48.072;16.286;2024-03-22T07:59:30;16.25;;;8.45;;
11596;SDS011;5854;48.072;16.286;2024-03-22T08:01:58;14.40;;;8.32;;
11596;SDS011;5854;48.072;16.286;2024-03-22T08:04:24;10.52;;;6.85;;
11596;SDS011;5854;48.072;16.286;2024-03-22T08:06:53;12.73;;;7.22;;
11596;SDS011;5854;48.072;16.286;2024-03-22T08:09:20;9.85;;;8.15;;
11596;SDS011;5854;48.072;16.286;2024-03-22T08:11:48;18.02;;;9.38;;
11596;SDS011;5854;48.072;16.286;2024-03-22T08:14:14;9.55;;;7.55;;
11596;SDS011;5854;48.072;16.286;2024-03-22T08:16:42;18.05;;;9.07;;
11596;SDS011;5854;48.072;16.286;2024-03-22T08:19:08;10.60;;;7.40;;
11596;SDS011;5854;48.072;16.286;2024-03-22T08:21:35;12.02;;;8.30;;
11596;SDS011;5854;48.072;16.286;2024-03-22T08:24:01;9.20;;;6.97;;
11596;SDS011;5854;48.072;16.286;2024-03-22T08:26:31;16.98;;;9.60;;
11596;SDS011;5854;48.072;16.286;2024-03-22T08:28:57;14.40;;;7.72;;
11596;SDS011;5854;48.072;16.286;2024-03-22T08:31:24;9.32;;;6.82;;
11596;SDS011;5854;48.072;16.286;2024-03-22T08:33:53;13.45;;;8.02;;
11596;SDS011;5854;48.072;16.286;2024-03-22T08:36:22;16.65;;;9.43;;
11596;SDS011;5854;48.072;16.286;2024-03-22T08:38:48;12.95;;;8.80;;
11596;SDS011;5854;48.072;16.286;2024-03-22T08:41:16;13.02;;;8.45;;
11596;SDS011;5854;48.072;16.286;2024-03-22T08:43:43;11.60;;;7.65;;
11596;SDS011;5854;48.072;16.286;2024-03-22T08:46:11;11.02;;;6.95;;
11596;SDS011;5854;48.072;16.286;2024-03-22T08:48:37;13.57;;;6.70;;
11596;SDS011;5854;48.072;16.286;2024-03-22T08:51:05;12.93;;;6.90;;
11596;SDS011;5854;48.072;16.286;2024-03-22T08:53:31;4.78;;;3.38;;
11596;SDS011;5854;48.072;16.286;2024-03-22T08:55:58;12.35;;;7.80;;
11596;SDS011;5854;48.072;16.286;2024-03-22T08:58:24;6.22;;;4.72;;
11596;SDS011;5854;48.072;16.286;2024-03-22T09:00:53;8.38;;;6.82;;
11596;SDS011;5854;48.072;16.286;2024-03-22T09:03:20;5.22;;;4.40;;
11596;SDS011;5854;48.072;16.286;2024-03-22T09:05:47;12.10;;;5.38;;
11596;SDS011;5854;48.072;16.286;2024-03-22T09:08:17;14.60;;;8.25;;
11596;SDS011;5854;48.072;16.286;2024-03-22T09:10:45;16.83;;;7.32;;
11596;SDS011;5854;48.072;16.286;2024-03-22T09:13:11;14.23;;;8.32;;
11596;SDS011;5854;48.072;16.286;2024-03-22T09:15:38;11.10;;;6.53;;
11596;SDS011;5854;48.072;16.286;2024-03-22T09:18:06;10.27;;;6.90;;
11596;SDS011;5854;48.072;16.286;2024-03-22T09:20:33;17.80;;;7.45;;
11596;SDS011;5854;48.072;16.286;2024-03-22T09:22:59;10.93;;;6.90;;
11596;SDS011;5854;48.072;16.286;2024-03-22T09:25:27;11.82;;;8.18;;
11596;SDS011;5854;48.072;16.286;2024-03-22T09:27:53;13.02;;;7.70;;
11596;SDS011;5854;48.072;16.286;2024-03-22T09:30:20;11.00;;;7.20;;
11596;SDS011;5854;48.072;16.286;2024-03-22T09:32:47;10.40;;;6.18;;
11596;SDS011;5854;48.072;16.286;2024-03-22T09:35:15;8.35;;;6.82;;
11596;SDS011;5854;48.072;16.286;2024-03-22T09:37:42;7.97;;;6.35;;
11596;SDS011;5854;48.072;16.286;2024-03-22T09:40:10;13.65;;;8.20;;
11596;SDS011;5854;48.072;16.286;2024-03-22T09:42:37;5.75;;;4.75;;
11596;SDS011;5854;48.072;16.286;2024-03-22T09:45:07;12.95;;;7.20;;
11596;SDS011;5854;48.072;16.286;2024-03-22T09:47:35;8.63;;;6.35;;
11596;SDS011;5854;48.072;16.286;2024-03-22T09:50:04;7.32;;;4.60;;
11596;SDS011;5854;48.072;16.286;2024-03-22T09:52:35;14.63;;;5.53;;
11596;SDS011;5854;48.072;16.286;2024-03-22T09:55:05;10.90;;;6.47;;
11596;SDS011;5854;48.072;16.286;2024-03-22T09:57:34;11.25;;;7.30;;
11596;SDS011;5854;48.072;16.286;2024-03-22T10:00:06;10.20;;;6.25;;
11596;SDS011;5854;48.072;16.286;2024-03-22T10:02:34;14.85;;;6.78;;
11596;SDS011;5854;48.072;16.286;2024-03-22T10:05:02;10.75;;;7.18;;
11596;SDS011;5854;48.072;16.286;2024-03-22T10:07:29;9.43;;;6.72;;
11596;SDS011;5854;48.072;16.286;2024-03-22T10:09:59;8.02;;;6.00;;
11596;SDS011;5854;48.072;16.286;2024-03-22T10:12:26;8.88;;;5.72;;
11596;SDS011;5854;48.072;16.286;2024-03-22T10:14:53;8.13;;;6.20;;
11596;SDS011;5854;48.072;16.286;2024-03-22T10:17:20;10.27;;;5.47;;
11596;SDS011;5854;48.072;16.286;2024-03-22T10:19:48;8.45;;;5.05;;
11596;SDS011;5854;48.072;16.286;2024-03-22T10:22:15;9.05;;;5.55;;
11596;SDS011;5854;48.072;16.286;2024-03-22T10:24:43;5.50;;;4.65;;
11596;SDS011;5854;48.072;16.286;2024-03-22T10:27:11;5.53;;;4.18;;
11596;SDS011;5854;48.072;16.286;2024-03-22T10:29:38;7.50;;;5.07;;
11596;SDS011;5854;48.072;16.286;2024-03-22T10:32:05;5.03;;;3.33;;
11596;SDS011;5854;48.072;16.286;2024-03-22T10:34:35;4.32;;;3.78;;
11596;SDS011;5854;48.072;16.286;2024-03-22T10:37:01;6.70;;;3.65;;
11596;SDS011;5854;48.072;16.286;2024-03-22T10:39:28;7.50;;;5.05;;
11596;SDS011;5854;48.072;16.286;2024-03-22T10:41:56;4.65;;;3.65;;
11596;SDS011;5854;48.072;16.286;2024-03-22T10:44:25;3.92;;;3.30;;
11596;SDS011;5854;48.072;16.286;2024-03-22T10:46:51;5.10;;;3.58;;
11596;SDS011;5854;48.072;16.286;2024-03-22T10:49:22;7.88;;;3.70;;
11596;SDS011;5854;48.072;16.286;2024-03-22T10:51:50;3.38;;;3.03;;
11596;SDS011;5854;48.072;16.286;2024-03-22T10:54:24;4.43;;;3.63;;
11596;SDS011;5854;48.072;16.286;2024-03-22T10:56:56;7.22;;;3.20;;
11596;SDS011;5854;48.072;16.286;2024-03-22T10:59:25;9.98;;;3.83;;
11596;SDS011;5854;48.072;16.286;2024-03-22T11:01:51;4.97;;;3.30;;
11596;SDS011;5854;48.072;16.286;2024-03-22T11:04:19;6.65;;;4.88;;
11596;SDS011;5854;48.072;16.286;2024-03-22T11:06:48;6.68;;;3.80;;
11596;SDS011;5854;48.072;16.286;2024-03-22T11:09:18;3.33;;;2.97;;
11596;SDS011;5854;48.072;16.286;2024-03-22T11:11:46;3.60;;;3.30;;
11596;SDS011;5854;48.072;16.286;2024-03-22T11:14:14;4.70;;;3.33;;
11596;SDS011;5854;48.072;16.286;2024-03-22T11:16:43;5.32;;;3.97;;
11596;SDS011;5854;48.072;16.286;2024-03-22T11:19:11;7.75;;;4.28;;
11596;SDS011;5854;48.072;16.286;2024-03-22T11:21:37;5.32;;;3.10;;
11596;SDS011;5854;48.072;16.286;2024-03-22T11:24:06;3.70;;;3.17;;
11596;SDS011;5854;48.072;16.286;2024-03-22T11:26:32;5.38;;;3.60;;
11596;SDS011;5854;48.072;16.286;2024-03-22T11:29:00;6.22;;;3.17;;
11596;SDS011;5854;48.072;16.286;2024-03-22T11:31:26;4.93;;;3.25;;
11596;SDS011;5854;48.072;16.286;2024-03-22T11:33:56;4.55;;;3.63;;
11596;SDS011;5854;48.072;16.286;2024-03-22T11:36:22;2.10;;;1.83;;
11596;SDS011;5854;48.072;16.286;2024-03-22T11:38:50;3.72;;;3.22;;
11596;SDS011;5854;48.072;16.286;2024-03-22T11:41:19;4.35;;;3.95;;
11596;SDS011;5854;48.072;16.286;2024-03-22T11:43:52;4.13;;;2.75;;
11596;SDS011;5854;48.072;16.286;2024-03-22T11:46:19;5.03;;;3.20;;
11596;SDS011;5854;48.072;16.286;2024-03-22T11:48:50;6.75;;;3.25;;
11596;SDS011;5854;48.072;16.286;2024-03-22T11:51:18;3.08;;;2.78;;
11596;SDS011;5854;48.072;16.286;2024-03-22T11:53:49;5.75;;;2.88;;
11596;SDS011;5854;48.072;16.286;2024-03-22T11:56:17;1.73;;;1.63;;
11596;SDS011;5854;48.072;16.286;2024-03-22T11:58:46;2.15;;;1.95;;
11596;SDS011;5854;48.072;16.286;2024-03-22T12:01:13;4.57;;;1.90;;
11596;SDS011;5854;48.072;16.286;2024-03-22T12:03:43;2.30;;;1.75;;
11596;SDS011;5854;48.072;16.286;2024-03-22T12:06:09;2.78;;;1.67;;
11596;SDS011;5854;48.072;16.286;2024-03-22T12:08:38;5.72;;;3.17;;
11596;SDS011;5854;48.072;16.286;2024-03-22T12:11:06;2.35;;;2.10;;
11596;SDS011;5854;48.072;16.286;2024-03-22T12:13:34;7.53;;;2.42;;
11596;SDS011;5854;48.072;16.286;2024-03-22T12:16:00;3.42;;;2.47;;
11596;SDS011;5854;48.072;16.286;2024-03-22T12:18:30;2.70;;;2.50;;
11596;SDS011;5854;48.072;16.286;2024-03-22T12:20:56;2.15;;;1.85;;
11596;SDS011;5854;48.072;16.286;2024-03-22T12:23:24;4.97;;;1.98;;
11596;SDS011;5854;48.072;16.286;2024-03-22T12:25:51;2.58;;;2.38;;
11596;SDS011;5854;48.072;16.286;2024-03-22T12:28:20;2.55;;;2.30;;
11596;SDS011;5854;48.072;16.286;2024-03-22T12:30:47;3.10;;;2.75;;
11596;SDS011;5854;48.072;16.286;2024-03-22T12:33:14;5.63;;;1.98;;
11596;SDS011;5854;48.072;16.286;2024-03-22T12:35:40;2.47;;;1.92;;
11596;SDS011;5854;48.072;16.286;2024-03-22T12:38:08;2.40;;;2.17;;
11596;SDS011;5854;48.072;16.286;2024-03-22T12:40:36;4.10;;;1.73;;
11596;SDS011;5854;48.072;16.286;2024-03-22T12:43:04;2.17;;;1.75;;
11596;SDS011;5854;48.072;16.286;2024-03-22T12:45:31;2.47;;;2.28;;
11596;SDS011;5854;48.072;16.286;2024-03-22T12:47:58;3.15;;;2.05;;
11596;SDS011;5854;48.072;16.286;2024-03-22T12:50:26;2.38;;;1.60;;
11596;SDS011;5854;48.072;16.286;2024-03-22T12:52:53;4.60;;;1.70;;
11596;SDS011;5854;48.072;16.286;2024-03-22T12:55:20;1.90;;;1.80;;
11596;SDS011;5854;48.072;16.286;2024-03-22T12:57:47;4.38;;;2.08;;
11596;SDS011;5854;48.072;16.286;2024-03-22T13:00:15;4.88;;;2.88;;
11596;SDS011;5854;48.072;16.286;2024-03-22T13:02:44;2.17;;;1.40;;
11596;SDS011;5854;48.072;16.286;2024-03-22T13:05:11;4.40;;;2.13;;
11596;SDS011;5854;48.072;16.286;2024-03-22T13:07:40;1.13;;;1.02;;
11596;SDS011;5854;48.072;16.286;2024-03-22T13:10:07;1.52;;;1.27;;
11596;SDS011;5854;48.072;16.286;2024-03-22T13:12:35;1.63;;;1.52;;
11596;SDS011;5854;48.072;16.286;2024-03-22T13:15:02;4.07;;;2.25;;
11596;SDS011;5854;48.072;16.286;2024-03-22T13:17:32;2.55;;;1.70;;
11596;SDS011;5854;48.072;16.286;2024-03-22T13:19:58;2.92;;;2.20;;
11596;SDS011;5854;48.072;16.286;2024-03-22T13:22:26;13.75;;;1.30;;
11596;SDS011;5854;48.072;16.286;2024-03-22T13:24:52;4.80;;;2.05;;
11596;SDS011;5854;48.072;16.286;2024-03-22T13:27:20;3.15;;;1.98;;
11596;SDS011;5854;48.072;16.286;2024-03-22T13:29:47;2.08;;;1.92;;
11596;SDS011;5854;48.072;16.286;2024-03-22T13:32:15;4.57;;;2.30;;
11596;SDS011;5854;48.072;16.286;2024-03-22T13:34:42;3.67;;;2.08;;
11596;SDS011;5854;48.072;16.286;2024-03-22T13:37:10;3.13;;;2.13;;
11596;SDS011;5854;48.072;16.286;2024-03-22T13:39:36;2.63;;;2.15;;
11596;SDS011;5854;48.072;16.286;2024-03-22T13:42:03;4.65;;;3.30;;
11596;SDS011;5854;48.072;16.286;2024-03-22T13:44:32;3.53;;;2.58;;
11596;SDS011;5854;48.072;16.286;2024-03-22T13:46:59;3.20;;;2.95;;
11596;SDS011;5854;48.072;16.286;2024-03-22T13:49:25;2.97;;;1.60;;
11596;SDS011;5854;48.072;16.286;2024-03-22T13:51:54;4.65;;;2.53;;
11596;SDS011;5854;48.072;16.286;2024-03-22T13:54:24;4.78;;;2.75;;
11596;SDS011;5854;48.072;16.286;2024-03-22T13:56:51;2.53;;;2.17;;
11596;SDS011;5854;48.072;16.286;2024-03-22T13:59:17;1.52;;;1.10;;
11596;SDS011;5854;48.072;16.286;2024-03-22T14:01:45;3.13;;;2.60;;
11596;SDS011;5854;48.072;16.286;2024-03-22T14:04:12;3.45;;;2.83;;
11596;SDS011;5854;48.072;16.286;2024-03-22T14:06:40;3.42;;;3.10;;
11596;SDS011;5854;48.072;16.286;2024-03-22T14:09:08;2.90;;;2.63;;
11596;SDS011;5854;48.072;16.286;2024-03-22T14:11:38;3.78;;;2.65;;
11596;SDS011;5854;48.072;16.286;2024-03-22T14:14:04;3.60;;;2.53;;
11596;SDS011;5854;48.072;16.286;2024-03-22T14:16:32;2.67;;;2.42;;
11596;SDS011;5854;48.072;16.286;2024-03-22T14:18:59;3.90;;;2.40;;
11596;SDS011;5854;48.072;16.286;2024-03-22T14:21:27;6.40;;;2.50;;
11596;SDS011;5854;48.072;16.286;2024-03-22T14:23:53;5.18;;;1.95;;
11596;SDS011;5854;48.072;16.286;2024-03-22T14:26:22;3.15;;;2.35;;
11596;SDS011;5854;48.072;16.286;2024-03-22T14:28:49;1.42;;;1.33;;
11596;SDS011;5854;48.072;16.286;2024-03-22T14:31:17;3.75;;;2.85;;
11596;SDS011;5854;48.072;16.286;2024-03-22T14:33:44;2.30;;;2.10;;
11596;SDS011;5854;48.072;16.286;2024-03-22T14:36:12;8.35;;;2.95;;
11596;SDS011;5854;48.072;16.286;2024-03-22T14:38:38;5.70;;;2.80;;
11596;SDS011;5854;48.072;16.286;2024-03-22T14:41:06;3.10;;;2.13;;